sensor_id;sensor_type;location;lat;lon;timestamp;temperature;humidity
28010;DHT22;15334;49.494;8.410;2022-07-23T00:01:31;24.20;99.90
28010;DHT22;15334;49.494;8.410;2022-07-23T00:04:00;24.00;99.90
28010;DHT22;15334;49.494;8.410;2022-07-23T00:06:28;23.80;99.90
28010;DHT22;15334;49.494;8.410;2022-07-23T00:08:56;23.70;99.90
28010;DHT22;15334;49.494;8.410;2022-07-23T00:11:25;23.70;99.90
28010;DHT22;15334;49.494;8.410;2022-07-23T00:13:54;23.70;99.90
28010;DHT22;15334;49.494;8.410;2022-07-23T00:16:25;23.80;99.90
28010;DHT22;15334;49.494;8.410;2022-07-23T00:18:54;23.80;99.90
28010;DHT22;15334;49.494;8.410;2022-07-23T00:21:23;23.80;99.90
28010;DHT22;15334;49.494;8.410;2022-07-23T00:23:51;23.80;99.90
28010;DHT22;15334;49.494;8.410;2022-07-23T00:26:19;23.70;99.90
28010;DHT22;15334;49.494;8.410;2022-07-23T00:28:47;23.70;99.90
28010;DHT22;15334;49.494;8.410;2022-07-23T00:31:15;23.70;99.90
28010;DHT22;15334;49.494;8.410;2022-07-23T00:33:43;23.60;99.90
28010;DHT22;15334;49.494;8.410;2022-07-23T00:36:13;23.50;99.90
28010;DHT22;15334;49.494;8.410;2022-07-23T00:38:41;23.60;99.90
28010;DHT22;15334;49.494;8.410;2022-07-23T00:41:09;23.60;99.90
28010;DHT22;15334;49.494;8.410;2022-07-23T00:43:37;23.60;99.90
28010;DHT22;15334;49.494;8.410;2022-07-23T00:46:05;23.70;99.90
28010;DHT22;15334;49.494;8.410;2022-07-23T00:48:33;23.70;99.90
28010;DHT22;15334;49.494;8.410;2022-07-23T00:51:01;23.70;99.90
28010;DHT22;15334;49.494;8.410;2022-07-23T00:53:31;23.70;99.90
28010;DHT22;15334;49.494;8.410;2022-07-23T00:55:59;23.70;99.90
28010;DHT22;15334;49.494;8.410;2022-07-23T00:58:27;23.70;99.90
28010;DHT22;15334;49.494;8.410;2022-07-23T01:00:55;23.70;99.90
28010;DHT22;15334;49.494;8.410;2022-07-23T01:03:24;23.60;99.90
28010;DHT22;15334;49.494;8.410;2022-07-23T01:05:52;23.40;99.90
28010;DHT22;15334;49.494;8.410;2022-07-23T01:08:20;23.30;99.90
28010;DHT22;15334;49.494;8.410;2022-07-23T01:10:50;23.30;99.90
28010;DHT22;15334;49.494;8.410;2022-07-23T01:13:19;23.40;99.90
28010;DHT22;15334;49.494;8.410;2022-07-23T01:15:47;23.40;99.90
28010;DHT22;15334;49.494;8.410;2022-07-23T01:18:15;23.50;99.90
28010;DHT22;15334;49.494;8.410;2022-07-23T01:20:43;23.40;99.90
28010;DHT22;15334;49.494;8.410;2022-07-23T01:23:13;23.40;99.90
28010;DHT22;15334;49.494;8.410;2022-07-23T01:25:47;23.30;99.90
28010;DHT22;15334;49.494;8.410;2022-07-23T01:28:16;23.20;99.90
28010;DHT22;15334;49.494;8.410;2022-07-23T01:30:44;23.10;99.90
28010;DHT22;15334;49.494;8.410;2022-07-23T01:33:12;23.10;99.90
28010;DHT22;15334;49.494;8.410;2022-07-23T01:35:40;23.10;99.90
28010;DHT22;15334;49.494;8.410;2022-07-23T01:38:09;23.10;99.90
28010;DHT22;15334;49.494;8.410;2022-07-23T01:40:39;23.10;99.90
28010;DHT22;15334;49.494;8.410;2022-07-23T01:43:12;23.20;99.90
28010;DHT22;15334;49.494;8.410;2022-07-23T01:45:41;23.20;99.90
28010;DHT22;15334;49.494;8.410;2022-07-23T01:48:11;23.20;99.90
28010;DHT22;15334;49.494;8.410;2022-07-23T01:50:39;23.10;99.90
28010;DHT22;15334;49.494;8.410;2022-07-23T01:53:07;22.90;99.90
28010;DHT22;15334;49.494;8.410;2022-07-23T01:55:35;22.80;99.90
28010;DHT22;15334;49.494;8.410;2022-07-23T01:58:04;22.80;99.90
28010;DHT22;15334;49.494;8.410;2022-07-23T02:00:36;22.90;99.90
28010;DHT22;15334;49.494;8.410;2022-07-23T02:03:04;22.90;99.90
28010;DHT22;15334;49.494;8.410;2022-07-23T02:05:36;22.80;99.90
28010;DHT22;15334;49.494;8.410;2022-07-23T02:08:04;22.70;99.90
28010;DHT22;15334;49.494;8.410;2022-07-23T02:10:35;22.60;99.90
28010;DHT22;15334;49.494;8.410;2022-07-23T02:13:09;22.60;99.90
28010;DHT22;15334;49.494;8.410;2022-07-23T02:15:44;22.50;99.90
28010;DHT22;15334;49.494;8.410;2022-07-23T02:18:12;22.50;99.90
28010;DHT22;15334;49.494;8.410;2022-07-23T02:20:40;22.40;99.90
28010;DHT22;15334;49.494;8.410;2022-07-23T02:23:09;22.40;99.90
28010;DHT22;15334;49.494;8.410;2022-07-23T02:25:37;22.40;99.90
28010;DHT22;15334;49.494;8.410;2022-07-23T02:28:05;22.40;99.90
28010;DHT22;15334;49.494;8.410;2022-07-23T02:30:34;22.40;99.90
28010;DHT22;15334;49.494;8.410;2022-07-23T02:33:02;22.40;99.90
28010;DHT22;15334;49.494;8.410;2022-07-23T02:35:30;22.30;99.90
28010;DHT22;15334;49.494;8.410;2022-07-23T02:37:58;22.30;99.90
28010;DHT22;15334;49.494;8.410;2022-07-23T02:40:27;22.30;99.90
28010;DHT22;15334;49.494;8.410;2022-07-23T02:42:55;22.40;99.90
28010;DHT22;15334;49.494;8.410;2022-07-23T02:45:23;22.40;99.90
28010;DHT22;15334;49.494;8.410;2022-07-23T02:47:52;22.40;99.90
28010;DHT22;15334;49.494;8.410;2022-07-23T02:50:20;22.40;99.90
28010;DHT22;15334;49.494;8.410;2022-07-23T02:52:48;22.40;99.90
28010;DHT22;15334;49.494;8.410;2022-07-23T02:55:17;22.50;99.90
28010;DHT22;15334;49.494;8.410;2022-07-23T02:57:45;22.60;99.90
28010;DHT22;15334;49.494;8.410;2022-07-23T03:00:13;22.50;99.90
28010;DHT22;15334;49.494;8.410;2022-07-23T03:02:41;22.50;99.90
28010;DHT22;15334;49.494;8.410;2022-07-23T03:05:10;22.40;99.90
28010;DHT22;15334;49.494;8.410;2022-07-23T03:07:38;22.40;99.90
28010;DHT22;15334;49.494;8.410;2022-07-23T03:10:07;22.30;99.90
28010;DHT22;15334;49.494;8.410;2022-07-23T03:12:35;22.30;99.90
28010;DHT22;15334;49.494;8.410;2022-07-23T03:15:04;22.30;99.90
28010;DHT22;15334;49.494;8.410;2022-07-23T03:17:32;22.30;99.90
28010;DHT22;15334;49.494;8.410;2022-07-23T03:20:00;22.30;99.90
28010;DHT22;15334;49.494;8.410;2022-07-23T03:22:30;22.40;99.90
28010;DHT22;15334;49.494;8.410;2022-07-23T03:24:58;22.40;99.90
28010;DHT22;15334;49.494;8.410;2022-07-23T03:27:28;22.40;99.90
28010;DHT22;15334;49.494;8.410;2022-07-23T03:29:57;22.40;99.90
28010;DHT22;15334;49.494;8.410;2022-07-23T03:32:26;22.40;99.90
28010;DHT22;15334;49.494;8.410;2022-07-23T03:34:54;22.30;99.90
28010;DHT22;15334;49.494;8.410;2022-07-23T03:37:23;22.30;99.90
28010;DHT22;15334;49.494;8.410;2022-07-23T03:39:53;22.30;99.90
28010;DHT22;15334;49.494;8.410;2022-07-23T03:42:21;22.30;99.90
28010;DHT22;15334;49.494;8.410;2022-07-23T03:44:49;22.20;99.90
28010;DHT22;15334;49.494;8.410;2022-07-23T03:47:17;22.10;99.90
28010;DHT22;15334;49.494;8.410;2022-07-23T03:49:48;22.00;99.90
28010;DHT22;15334;49.494;8.410;2022-07-23T03:52:16;21.90;99.90
28010;DHT22;15334;49.494;8.410;2022-07-23T03:54:44;21.90;99.90
28010;DHT22;15334;49.494;8.410;2022-07-23T03:57:14;21.80;99.90
28010;DHT22;15334;49.494;8.410;2022-07-23T03:59:42;21.90;99.90
28010;DHT22;15334;49.494;8.410;2022-07-23T04:02:10;21.80;99.90
28010;DHT22;15334;49.494;8.410;2022-07-23T04:04:38;21.90;99.90
28010;DHT22;15334;49.494;8.410;2022-07-23T04:07:06;21.80;99.90
28010;DHT22;15334;49.494;8.410;2022-07-23T04:09:34;21.80;99.90
28010;DHT22;15334;49.494;8.410;2022-07-23T04:12:02;21.90;99.90
28010;DHT22;15334;49.494;8.410;2022-07-23T04:14:32;21.80;99.90
28010;DHT22;15334;49.494;8.410;2022-07-23T04:17:00;21.90;99.90
28010;DHT22;15334;49.494;8.410;2022-07-23T04:19:29;21.80;99.90
28010;DHT22;15334;49.494;8.410;2022-07-23T04:21:58;21.70;99.90
28010;DHT22;15334;49.494;8.410;2022-07-23T04:24:26;21.50;99.90
28010;DHT22;15334;49.494;8.410;2022-07-23T04:26:54;21.60;99.90
28010;DHT22;15334;49.494;8.410;2022-07-23T04:29:22;21.60;99.90
28010;DHT22;15334;49.494;8.410;2022-07-23T04:31:51;21.50;99.90
28010;DHT22;15334;49.494;8.410;2022-07-23T04:34:19;21.50;99.90
28010;DHT22;15334;49.494;8.410;2022-07-23T04:36:48;21.50;99.90
28010;DHT22;15334;49.494;8.410;2022-07-23T04:39:16;21.30;99.90
28010;DHT22;15334;49.494;8.410;2022-07-23T04:41:44;21.10;99.90
28010;DHT22;15334;49.494;8.410;2022-07-23T04:44:13;21.00;99.90
28010;DHT22;15334;49.494;8.410;2022-07-23T04:46:41;20.90;99.90
28010;DHT22;15334;49.494;8.410;2022-07-23T04:49:10;20.80;99.90
28010;DHT22;15334;49.494;8.410;2022-07-23T04:51:38;20.50;99.90
28010;DHT22;15334;49.494;8.410;2022-07-23T04:54:07;20.30;99.90
28010;DHT22;15334;49.494;8.410;2022-07-23T04:56:35;20.10;99.90
28010;DHT22;15334;49.494;8.410;2022-07-23T04:59:03;20.10;99.90
28010;DHT22;15334;49.494;8.410;2022-07-23T05:01:31;20.10;99.90
28010;DHT22;15334;49.494;8.410;2022-07-23T05:03:59;19.90;99.90
28010;DHT22;15334;49.494;8.410;2022-07-23T05:06:29;19.80;99.90
28010;DHT22;15334;49.494;8.410;2022-07-23T05:08:57;19.70;99.90
28010;DHT22;15334;49.494;8.410;2022-07-23T05:11:25;19.70;99.90
28010;DHT22;15334;49.494;8.410;2022-07-23T05:13:56;19.70;99.90
28010;DHT22;15334;49.494;8.410;2022-07-23T05:16:24;19.70;99.90
28010;DHT22;15334;49.494;8.410;2022-07-23T05:18:52;19.70;99.90
28010;DHT22;15334;49.494;8.410;2022-07-23T05:21:20;19.70;99.90
28010;DHT22;15334;49.494;8.410;2022-07-23T05:23:50;19.80;99.90
28010;DHT22;15334;49.494;8.410;2022-07-23T05:26:18;19.80;99.90
28010;DHT22;15334;49.494;8.410;2022-07-23T05:28:47;19.80;99.90
28010;DHT22;15334;49.494;8.410;2022-07-23T05:31:26;19.90;99.90
28010;DHT22;15334;49.494;8.410;2022-07-23T05:33:57;19.80;99.90
28010;DHT22;15334;49.494;8.410;2022-07-23T05:36:25;19.70;99.90
28010;DHT22;15334;49.494;8.410;2022-07-23T05:38:54;19.60;99.90
28010;DHT22;15334;49.494;8.410;2022-07-23T05:41:23;19.60;99.90
28010;DHT22;15334;49.494;8.410;2022-07-23T05:43:51;19.50;99.90
28010;DHT22;15334;49.494;8.410;2022-07-23T05:46:21;19.50;99.90
28010;DHT22;15334;49.494;8.410;2022-07-23T05:48:51;19.50;99.90
28010;DHT22;15334;49.494;8.410;2022-07-23T05:51:20;19.50;99.90
28010;DHT22;15334;49.494;8.410;2022-07-23T05:53:49;19.60;99.90
28010;DHT22;15334;49.494;8.410;2022-07-23T05:56:20;19.60;99.90
28010;DHT22;15334;49.494;8.410;2022-07-23T05:58:48;19.70;99.90
28010;DHT22;15334;49.494;8.410;2022-07-23T06:01:16;19.70;99.90
28010;DHT22;15334;49.494;8.410;2022-07-23T06:03:46;19.70;99.90
28010;DHT22;15334;49.494;8.410;2022-07-23T06:06:14;19.70;99.90
28010;DHT22;15334;49.494;8.410;2022-07-23T06:08:45;19.70;99.90
28010;DHT22;15334;49.494;8.410;2022-07-23T06:11:13;19.70;99.90
28010;DHT22;15334;49.494;8.410;2022-07-23T06:13:42;19.80;99.90
28010;DHT22;15334;49.494;8.410;2022-07-23T06:16:10;19.90;99.90
28010;DHT22;15334;49.494;8.410;2022-07-23T06:18:38;20.00;99.90
28010;DHT22;15334;49.494;8.410;2022-07-23T06:21:07;20.10;99.90
28010;DHT22;15334;49.494;8.410;2022-07-23T06:23:55;20.20;99.90
28010;DHT22;15334;49.494;8.410;2022-07-23T06:26:26;20.30;99.90
28010;DHT22;15334;49.494;8.410;2022-07-23T06:28:58;20.30;99.90
28010;DHT22;15334;49.494;8.410;2022-07-23T06:31:27;20.40;99.90
28010;DHT22;15334;49.494;8.410;2022-07-23T06:33:55;20.60;99.90
28010;DHT22;15334;49.494;8.410;2022-07-23T06:36:23;20.70;99.90
28010;DHT22;15334;49.494;8.410;2022-07-23T06:38:51;20.80;99.90
28010;DHT22;15334;49.494;8.410;2022-07-23T06:41:20;20.90;99.90
28010;DHT22;15334;49.494;8.410;2022-07-23T06:43:49;21.00;99.90
28010;DHT22;15334;49.494;8.410;2022-07-23T06:46:18;21.10;99.90
28010;DHT22;15334;49.494;8.410;2022-07-23T06:48:48;21.10;99.90
28010;DHT22;15334;49.494;8.410;2022-07-23T06:51:16;21.10;99.90
28010;DHT22;15334;49.494;8.410;2022-07-23T06:53:44;21.00;99.90
28010;DHT22;15334;49.494;8.410;2022-07-23T06:56:12;21.00;99.90
28010;DHT22;15334;49.494;8.410;2022-07-23T06:58:40;20.90;99.90
28010;DHT22;15334;49.494;8.410;2022-07-23T07:01:08;20.90;99.90
28010;DHT22;15334;49.494;8.410;2022-07-23T07:03:38;20.80;99.90
28010;DHT22;15334;49.494;8.410;2022-07-23T07:06:10;20.80;99.90
28010;DHT22;15334;49.494;8.410;2022-07-23T07:08:39;20.80;99.90
28010;DHT22;15334;49.494;8.410;2022-07-23T07:11:07;20.90;99.90
28010;DHT22;15334;49.494;8.410;2022-07-23T07:13:35;20.90;99.90
28010;DHT22;15334;49.494;8.410;2022-07-23T07:16:04;21.00;99.90
28010;DHT22;15334;49.494;8.410;2022-07-23T07:18:32;21.00;99.90
28010;DHT22;15334;49.494;8.410;2022-07-23T07:21:02;21.10;99.90
28010;DHT22;15334;49.494;8.410;2022-07-23T07:23:30;21.30;99.90
28010;DHT22;15334;49.494;8.410;2022-07-23T07:25:58;21.40;99.90
28010;DHT22;15334;49.494;8.410;2022-07-23T07:28:26;21.50;99.90
28010;DHT22;15334;49.494;8.410;2022-07-23T07:30:54;21.60;99.90
28010;DHT22;15334;49.494;8.410;2022-07-23T07:33:22;21.70;99.90
28010;DHT22;15334;49.494;8.410;2022-07-23T07:35:50;21.70;99.90
28010;DHT22;15334;49.494;8.410;2022-07-23T07:38:19;21.90;99.90
28010;DHT22;15334;49.494;8.410;2022-07-23T07:40:48;22.00;99.90
28010;DHT22;15334;49.494;8.410;2022-07-23T07:43:16;22.10;99.90
28010;DHT22;15334;49.494;8.410;2022-07-23T07:45:44;22.20;99.90
28010;DHT22;15334;49.494;8.410;2022-07-23T07:48:12;22.30;99.90
28010;DHT22;15334;49.494;8.410;2022-07-23T07:50:40;22.50;99.90
28010;DHT22;15334;49.494;8.410;2022-07-23T07:53:10;22.60;99.90
28010;DHT22;15334;49.494;8.410;2022-07-23T07:55:39;22.70;99.90
28010;DHT22;15334;49.494;8.410;2022-07-23T07:58:08;22.80;99.90
28010;DHT22;15334;49.494;8.410;2022-07-23T08:00:36;23.00;99.90
28010;DHT22;15334;49.494;8.410;2022-07-23T08:03:04;23.00;99.90
28010;DHT22;15334;49.494;8.410;2022-07-23T08:05:32;23.00;99.90
28010;DHT22;15334;49.494;8.410;2022-07-23T08:08:00;23.20;99.90
28010;DHT22;15334;49.494;8.410;2022-07-23T08:10:28;23.30;99.90
28010;DHT22;15334;49.494;8.410;2022-07-23T08:12:59;23.30;99.90
28010;DHT22;15334;49.494;8.410;2022-07-23T08:15:29;23.30;99.90
28010;DHT22;15334;49.494;8.410;2022-07-23T08:17:58;23.20;99.90
28010;DHT22;15334;49.494;8.410;2022-07-23T08:20:27;23.20;99.90
28010;DHT22;15334;49.494;8.410;2022-07-23T08:22:58;23.20;99.90
28010;DHT22;15334;49.494;8.410;2022-07-23T08:25:27;23.20;99.90
28010;DHT22;15334;49.494;8.410;2022-07-23T08:27:56;23.20;99.90
28010;DHT22;15334;49.494;8.410;2022-07-23T08:30:27;23.20;99.90
28010;DHT22;15334;49.494;8.410;2022-07-23T08:32:57;23.30;99.90
28010;DHT22;15334;49.494;8.410;2022-07-23T08:35:29;23.40;99.90
28010;DHT22;15334;49.494;8.410;2022-07-23T08:38:02;23.60;99.90
28010;DHT22;15334;49.494;8.410;2022-07-23T08:40:33;23.60;99.90
28010;DHT22;15334;49.494;8.410;2022-07-23T08:43:10;23.70;99.90
28010;DHT22;15334;49.494;8.410;2022-07-23T08:45:41;23.80;99.90
28010;DHT22;15334;49.494;8.410;2022-07-23T08:48:12;23.90;99.90
28010;DHT22;15334;49.494;8.410;2022-07-23T08:50:43;24.00;99.90
28010;DHT22;15334;49.494;8.410;2022-07-23T08:53:15;24.10;99.90
28010;DHT22;15334;49.494;8.410;2022-07-23T08:55:44;24.00;99.90
28010;DHT22;15334;49.494;8.410;2022-07-23T08:58:15;24.00;99.90
28010;DHT22;15334;49.494;8.410;2022-07-23T09:00:46;24.00;99.90
28010;DHT22;15334;49.494;8.410;2022-07-23T09:03:16;24.10;99.90
28010;DHT22;15334;49.494;8.410;2022-07-23T09:05:45;24.10;99.90
28010;DHT22;15334;49.494;8.410;2022-07-23T09:08:15;24.00;99.90
28010;DHT22;15334;49.494;8.410;2022-07-23T09:10:45;24.10;99.90
28010;DHT22;15334;49.494;8.410;2022-07-23T09:13:34;24.10;99.90
28010;DHT22;15334;49.494;8.410;2022-07-23T09:16:06;24.10;99.90
28010;DHT22;15334;49.494;8.410;2022-07-23T09:18:42;24.20;99.90
28010;DHT22;15334;49.494;8.410;2022-07-23T09:21:25;24.30;99.90
28010;DHT22;15334;49.494;8.410;2022-07-23T09:23:57;24.50;99.90
28010;DHT22;15334;49.494;8.410;2022-07-23T09:26:32;24.70;99.90
28010;DHT22;15334;49.494;8.410;2022-07-23T09:29:10;24.90;99.90
28010;DHT22;15334;49.494;8.410;2022-07-23T09:31:48;25.00;99.90
28010;DHT22;15334;49.494;8.410;2022-07-23T09:34:22;25.10;99.90
28010;DHT22;15334;49.494;8.410;2022-07-23T09:36:52;25.00;99.90
28010;DHT22;15334;49.494;8.410;2022-07-23T09:39:28;25.00;99.90
28010;DHT22;15334;49.494;8.410;2022-07-23T09:41:57;24.70;99.90
28010;DHT22;15334;49.494;8.410;2022-07-23T09:44:25;24.50;99.90
28010;DHT22;15334;49.494;8.410;2022-07-23T09:46:59;24.60;99.90
28010;DHT22;15334;49.494;8.410;2022-07-23T09:49:28;24.60;99.90
28010;DHT22;15334;49.494;8.410;2022-07-23T09:51:59;24.70;99.90
28010;DHT22;15334;49.494;8.410;2022-07-23T09:54:32;24.80;99.90
28010;DHT22;15334;49.494;8.410;2022-07-23T09:57:05;24.80;99.90
28010;DHT22;15334;49.494;8.410;2022-07-23T09:59:37;25.10;99.90
28010;DHT22;15334;49.494;8.410;2022-07-23T10:02:08;25.40;99.90
28010;DHT22;15334;49.494;8.410;2022-07-23T10:04:39;25.50;99.90
28010;DHT22;15334;49.494;8.410;2022-07-23T10:07:09;25.60;99.90
28010;DHT22;15334;49.494;8.410;2022-07-23T10:09:41;25.90;99.90
28010;DHT22;15334;49.494;8.410;2022-07-23T10:12:10;25.90;99.90
28010;DHT22;15334;49.494;8.410;2022-07-23T10:14:49;25.90;99.90
28010;DHT22;15334;49.494;8.410;2022-07-23T10:17:19;26.00;99.90
28010;DHT22;15334;49.494;8.410;2022-07-23T10:19:47;26.10;99.90
28010;DHT22;15334;49.494;8.410;2022-07-23T10:22:19;26.30;99.90
28010;DHT22;15334;49.494;8.410;2022-07-23T10:24:53;26.50;99.90
28010;DHT22;15334;49.494;8.410;2022-07-23T10:27:47;26.70;99.90
28010;DHT22;15334;49.494;8.410;2022-07-23T10:30:20;27.00;99.90
28010;DHT22;15334;49.494;8.410;2022-07-23T10:33:00;27.10;99.90
28010;DHT22;15334;49.494;8.410;2022-07-23T10:35:36;27.10;99.90
28010;DHT22;15334;49.494;8.410;2022-07-23T10:38:11;26.90;99.90
28010;DHT22;15334;49.494;8.410;2022-07-23T10:40:54;26.90;99.90
28010;DHT22;15334;49.494;8.410;2022-07-23T10:43:22;27.00;99.90
28010;DHT22;15334;49.494;8.410;2022-07-23T10:45:51;27.10;99.90
28010;DHT22;15334;49.494;8.410;2022-07-23T10:48:23;27.10;99.90
28010;DHT22;15334;49.494;8.410;2022-07-23T10:51:10;26.90;99.90
28010;DHT22;15334;49.494;8.410;2022-07-23T10:53:53;27.10;99.90
28010;DHT22;15334;49.494;8.410;2022-07-23T10:56:49;27.30;99.90
28010;DHT22;15334;49.494;8.410;2022-07-23T10:59:17;27.60;99.90
28010;DHT22;15334;49.494;8.410;2022-07-23T11:01:46;28.00;99.90
28010;DHT22;15334;49.494;8.410;2022-07-23T11:04:16;28.30;99.90
28010;DHT22;15334;49.494;8.410;2022-07-23T11:07:06;28.60;99.90
28010;DHT22;15334;49.494;8.410;2022-07-23T11:09:41;28.90;99.90
28010;DHT22;15334;49.494;8.410;2022-07-23T11:12:31;28.80;99.90
28010;DHT22;15334;49.494;8.410;2022-07-23T11:15:01;29.00;99.90
28010;DHT22;15334;49.494;8.410;2022-07-23T11:17:29;29.10;99.90
28010;DHT22;15334;49.494;8.410;2022-07-23T11:20:17;29.10;99.90
28010;DHT22;15334;49.494;8.410;2022-07-23T11:22:50;29.40;99.90
28010;DHT22;15334;49.494;8.410;2022-07-23T11:25:33;29.60;99.90
28010;DHT22;15334;49.494;8.410;2022-07-23T11:28:09;29.90;99.90
28010;DHT22;15334;49.494;8.410;2022-07-23T11:30:39;30.50;99.90
28010;DHT22;15334;49.494;8.410;2022-07-23T11:33:20;31.00;99.90
28010;DHT22;15334;49.494;8.410;2022-07-23T11:36:01;31.90;99.90
28010;DHT22;15334;49.494;8.410;2022-07-23T11:38:31;33.00;99.50
28010;DHT22;15334;49.494;8.410;2022-07-23T11:41:00;33.40;99.00
28010;DHT22;15334;49.494;8.410;2022-07-23T11:43:28;34.40;97.70
28010;DHT22;15334;49.494;8.410;2022-07-23T11:45:58;34.90;95.60
28010;DHT22;15334;49.494;8.410;2022-07-23T11:48:28;35.00;94.10
28010;DHT22;15334;49.494;8.410;2022-07-23T11:50:58;34.20;92.50
28010;DHT22;15334;49.494;8.410;2022-07-23T11:53:28;33.40;93.80
28010;DHT22;15334;49.494;8.410;2022-07-23T11:56:03;33.30;92.80
28010;DHT22;15334;49.494;8.410;2022-07-23T11:58:32;32.90;93.20
28010;DHT22;15334;49.494;8.410;2022-07-23T12:01:03;32.20;93.80
28010;DHT22;15334;49.494;8.410;2022-07-23T12:03:31;31.80;94.40
28010;DHT22;15334;49.494;8.410;2022-07-23T12:06:01;31.50;94.90
28010;DHT22;15334;49.494;8.410;2022-07-23T12:08:29;31.40;95.30
28010;DHT22;15334;49.494;8.410;2022-07-23T12:10:57;30.50;97.50
28010;DHT22;15334;49.494;8.410;2022-07-23T12:13:25;30.00;98.50
28010;DHT22;15334;49.494;8.410;2022-07-23T12:15:56;29.60;99.90
28010;DHT22;15334;49.494;8.410;2022-07-23T12:18:26;29.30;99.90
28010;DHT22;15334;49.494;8.410;2022-07-23T12:20:57;28.90;99.90
28010;DHT22;15334;49.494;8.410;2022-07-23T12:23:29;28.40;99.90
28010;DHT22;15334;49.494;8.410;2022-07-23T12:26:01;28.00;99.90
28010;DHT22;15334;49.494;8.410;2022-07-23T12:28:32;27.60;99.90
28010;DHT22;15334;49.494;8.410;2022-07-23T12:31:00;27.40;99.90
28010;DHT22;15334;49.494;8.410;2022-07-23T12:33:30;27.30;99.90
28010;DHT22;15334;49.494;8.410;2022-07-23T12:36:00;27.40;99.90
28010;DHT22;15334;49.494;8.410;2022-07-23T12:38:39;28.60;99.90
28010;DHT22;15334;49.494;8.410;2022-07-23T12:41:08;30.40;99.90
28010;DHT22;15334;49.494;8.410;2022-07-23T12:43:38;32.40;99.90
28010;DHT22;15334;49.494;8.410;2022-07-23T12:46:08;34.40;99.90
28010;DHT22;15334;49.494;8.410;2022-07-23T12:48:38;35.40;97.00
28010;DHT22;15334;49.494;8.410;2022-07-23T12:51:08;36.10;95.60
28010;DHT22;15334;49.494;8.410;2022-07-23T12:53:47;36.10;91.60
28010;DHT22;15334;49.494;8.410;2022-07-23T12:56:19;36.30;91.50
28010;DHT22;15334;49.494;8.410;2022-07-23T12:58:49;36.80;92.20
28010;DHT22;15334;49.494;8.410;2022-07-23T13:01:26;36.70;89.70
28010;DHT22;15334;49.494;8.410;2022-07-23T13:03:59;37.00;88.60
28010;DHT22;15334;49.494;8.410;2022-07-23T13:06:28;37.70;87.00
28010;DHT22;15334;49.494;8.410;2022-07-23T13:08:58;38.40;82.50
28010;DHT22;15334;49.494;8.410;2022-07-23T13:11:29;37.40;81.30
28010;DHT22;15334;49.494;8.410;2022-07-23T13:13:57;36.40;81.50
28010;DHT22;15334;49.494;8.410;2022-07-23T13:16:27;36.10;82.60
28010;DHT22;15334;49.494;8.410;2022-07-23T13:18:56;35.80;84.20
28010;DHT22;15334;49.494;8.410;2022-07-23T13:21:25;34.30;83.90
28010;DHT22;15334;49.494;8.410;2022-07-23T13:23:54;33.40;86.70
28010;DHT22;15334;49.494;8.410;2022-07-23T13:26:24;33.20;87.90
28010;DHT22;15334;49.494;8.410;2022-07-23T13:28:55;33.20;88.90
28010;DHT22;15334;49.494;8.410;2022-07-23T13:31:28;33.20;87.60
28010;DHT22;15334;49.494;8.410;2022-07-23T13:33:57;32.90;89.70
28010;DHT22;15334;49.494;8.410;2022-07-23T13:36:25;32.70;88.40
28010;DHT22;15334;49.494;8.410;2022-07-23T13:38:53;32.00;90.30
28010;DHT22;15334;49.494;8.410;2022-07-23T13:41:21;31.60;90.60
28010;DHT22;15334;49.494;8.410;2022-07-23T13:43:53;31.10;90.90
28010;DHT22;15334;49.494;8.410;2022-07-23T13:46:24;30.90;91.30
28010;DHT22;15334;49.494;8.410;2022-07-23T13:48:52;30.50;91.80
28010;DHT22;15334;49.494;8.410;2022-07-23T13:51:20;30.80;92.10
28010;DHT22;15334;49.494;8.410;2022-07-23T13:53:51;32.10;90.40
28010;DHT22;15334;49.494;8.410;2022-07-23T13:56:19;33.20;86.40
28010;DHT22;15334;49.494;8.410;2022-07-23T13:58:47;34.00;85.10
28010;DHT22;15334;49.494;8.410;2022-07-23T14:01:17;34.20;83.40
28010;DHT22;15334;49.494;8.410;2022-07-23T14:03:45;34.00;84.40
28010;DHT22;15334;49.494;8.410;2022-07-23T14:06:13;34.90;84.00
28010;DHT22;15334;49.494;8.410;2022-07-23T14:09:02;35.90;79.40
28010;DHT22;15334;49.494;8.410;2022-07-23T14:11:30;36.80;75.80
28010;DHT22;15334;49.494;8.410;2022-07-23T14:13:58;37.70;74.70
28010;DHT22;15334;49.494;8.410;2022-07-23T14:16:28;37.40;73.20
28010;DHT22;15334;49.494;8.410;2022-07-23T14:18:57;36.80;73.30
28010;DHT22;15334;49.494;8.410;2022-07-23T14:21:27;36.80;74.00
28010;DHT22;15334;49.494;8.410;2022-07-23T14:23:55;37.50;74.00
28010;DHT22;15334;49.494;8.410;2022-07-23T14:26:24;37.60;72.10
28010;DHT22;15334;49.494;8.410;2022-07-23T14:28:52;37.90;72.20
28010;DHT22;15334;49.494;8.410;2022-07-23T14:31:20;37.80;70.40
28010;DHT22;15334;49.494;8.410;2022-07-23T14:33:50;37.20;70.70
28010;DHT22;15334;49.494;8.410;2022-07-23T14:36:19;36.20;73.30
28010;DHT22;15334;49.494;8.410;2022-07-23T14:38:48;35.40;74.20
28010;DHT22;15334;49.494;8.410;2022-07-23T14:41:16;34.90;74.30
28010;DHT22;15334;49.494;8.410;2022-07-23T14:43:44;33.90;74.90
28010;DHT22;15334;49.494;8.410;2022-07-23T14:46:13;33.40;77.30
28010;DHT22;15334;49.494;8.410;2022-07-23T14:48:42;32.90;78.40
28010;DHT22;15334;49.494;8.410;2022-07-23T14:51:11;32.70;78.90
28010;DHT22;15334;49.494;8.410;2022-07-23T14:53:39;32.60;82.70
28010;DHT22;15334;49.494;8.410;2022-07-23T14:56:07;32.20;80.00
28010;DHT22;15334;49.494;8.410;2022-07-23T14:58:36;31.90;85.90
28010;DHT22;15334;49.494;8.410;2022-07-23T15:01:04;31.60;82.10
28010;DHT22;15334;49.494;8.410;2022-07-23T15:03:36;31.40;82.50
28010;DHT22;15334;49.494;8.410;2022-07-23T15:06:08;31.20;84.40
28010;DHT22;15334;49.494;8.410;2022-07-23T15:08:39;31.10;84.10
28010;DHT22;15334;49.494;8.410;2022-07-23T15:11:07;31.10;82.30
28010;DHT22;15334;49.494;8.410;2022-07-23T15:13:36;31.10;83.20
28010;DHT22;15334;49.494;8.410;2022-07-23T15:16:25;31.10;84.30
28010;DHT22;15334;49.494;8.410;2022-07-23T15:18:53;30.80;83.10
28010;DHT22;15334;49.494;8.410;2022-07-23T15:21:23;30.60;85.00
28010;DHT22;15334;49.494;8.410;2022-07-23T15:23:53;30.30;84.10
28010;DHT22;15334;49.494;8.410;2022-07-23T15:26:21;30.10;84.80
28010;DHT22;15334;49.494;8.410;2022-07-23T15:28:50;30.10;85.60
28010;DHT22;15334;49.494;8.410;2022-07-23T15:31:18;29.90;87.10
28010;DHT22;15334;49.494;8.410;2022-07-23T15:33:46;29.90;86.80
28010;DHT22;15334;49.494;8.410;2022-07-23T15:36:16;30.00;86.40
28010;DHT22;15334;49.494;8.410;2022-07-23T15:38:48;30.10;86.90
28010;DHT22;15334;49.494;8.410;2022-07-23T15:41:20;30.10;86.30
28010;DHT22;15334;49.494;8.410;2022-07-23T15:43:50;30.00;86.50
28010;DHT22;15334;49.494;8.410;2022-07-23T15:46:18;30.00;87.00
28010;DHT22;15334;49.494;8.410;2022-07-23T15:48:53;30.00;85.80